createdAt,value
2023-05-13T05:01:02.290Z,87.94
2023-05-13T05:02:02.158Z,87.73
2023-05-13T05:03:02.073Z,87.73
2023-05-13T05:04:02.073Z,87.73
2023-05-13T05:05:02.024Z,87.94
2023-05-13T05:06:02.014Z,87.84
2023-05-13T05:07:01.997Z,87.43
2023-05-13T05:08:02.004Z,87.84
2023-05-13T05:09:02.002Z,87.63
2023-05-13T05:10:01.987Z,87.63
2023-05-13T05:11:01.977Z,87.84
2023-05-13T05:12:06.960Z,87.43
2023-05-13T05:13:01.965Z,87.73
2023-05-13T05:14:01.934Z,87.29
2023-05-13T05:15:01.916Z,87.29
2023-05-13T05:16:01.959Z,86.98
2023-05-13T05:17:01.986Z,86.37
2023-05-13T05:18:02.037Z,86.06
2023-05-13T05:19:01.958Z,85.92
2023-05-13T05:20:01.861Z,85.61
2023-05-13T05:21:02.670Z,85.21
2023-05-13T05:22:01.870Z,84.76
2023-05-13T05:23:06.868Z,84.97
2023-05-13T05:24:01.829Z,84.86
2023-05-13T05:25:01.798Z,84.35
2023-05-13T05:26:11.151Z,84.45
2023-05-13T05:27:01.780Z,84.56
2023-05-13T05:28:01.817Z,84.45
2023-05-13T05:29:01.759Z,84.56
2023-05-13T05:30:01.744Z,84.72
2023-05-13T05:31:01.762Z,84.52
2023-05-13T05:32:01.785Z,84.21
2023-05-13T05:33:01.772Z,83.87
2023-05-13T05:34:06.775Z,83.40
2023-05-13T05:35:01.686Z,83.29
2023-05-13T05:36:01.679Z,83.50
2023-05-13T05:37:01.667Z,82.85
2023-05-13T05:38:01.655Z,82.95
2023-05-13T05:39:01.640Z,82.89
2023-05-13T05:40:01.644Z,82.95
2023-05-13T05:41:01.619Z,82.99
2023-05-13T05:42:01.611Z,82.24
2023-05-13T05:43:01.601Z,82.04
2023-05-13T05:44:01.583Z,82.54
2023-05-13T05:45:06.596Z,81.59
2023-05-13T05:46:01.657Z,81.70
2023-05-13T05:47:01.565Z,81.59
2023-05-13T05:48:01.570Z,81.29
2023-05-13T05:49:01.551Z,80.37
2023-05-13T05:50:01.524Z,78.75
2023-05-13T05:51:01.506Z,80.24
2023-05-13T05:52:01.512Z,78.55
2023-05-13T05:53:01.493Z,79.12
2023-05-13T05:54:01.471Z,78.61
2023-05-13T05:55:01.523Z,78.98
2023-05-13T05:56:06.487Z,78.47
2023-05-13T05:57:01.457Z,78.37
2023-05-13T05:58:01.571Z,77.56
2023-05-13T05:59:01.419Z,76.95
2023-05-13T06:00:01.434Z,76.95
2023-05-13T06:01:01.408Z,77.36
2023-05-13T06:02:01.445Z,76.61
2023-05-13T06:03:01.620Z,75.70
2023-05-13T06:04:01.516Z,74.01
2023-05-13T06:05:01.392Z,73.87
2023-05-13T06:06:01.355Z,73.87
2023-05-13T06:07:06.382Z,73.93
2023-05-13T06:08:01.322Z,74.27
2023-05-13T06:09:01.440Z,74.65
2023-05-13T06:10:01.331Z,73.53
2023-05-13T06:11:01.290Z,72.92
2023-05-13T06:12:01.273Z,72.21
2023-05-13T06:13:01.272Z,72.31
2023-05-13T06:14:01.253Z,72.21
2023-05-13T06:15:01.378Z,72.31
2023-05-13T06:16:01.315Z,71.70
2023-05-13T06:17:01.213Z,71.70
2023-05-13T06:18:06.404Z,70.76
2023-05-13T06:19:01.293Z,70.25
2023-05-13T06:20:01.220Z,69.61
2023-05-13T06:21:01.210Z,68.90
2023-05-13T06:22:03.869Z,68.19
2023-05-13T06:23:01.191Z,67.99
2023-05-13T06:24:01.134Z,68.49
2023-05-13T06:25:01.139Z,68.09
2023-05-13T06:26:01.135Z,67.76
2023-05-13T06:27:01.103Z,67.55
2023-05-13T06:28:03.039Z,67.11
2023-05-13T06:29:06.114Z,66.20
2023-05-13T06:30:01.179Z,65.06
2023-05-13T06:31:01.098Z,64.45
2023-05-13T06:32:01.068Z,64.15
2023-05-13T06:33:02.386Z,63.54
2023-05-13T06:34:01.023Z,63.84
2023-05-13T06:35:01.115Z,64.04
2023-05-13T06:36:01.052Z,64.04
2023-05-13T06:37:01.058Z,63.67
2023-05-13T06:38:00.994Z,63.87
2023-05-13T06:39:00.969Z,64.92
2023-05-13T06:40:05.985Z,65.53
2023-05-13T06:41:00.953Z,64.92
2023-05-13T06:42:00.934Z,64.38
2023-05-13T06:43:00.923Z,64.89
2023-05-13T06:44:00.930Z,63.37
2023-05-13T06:45:00.909Z,63.67
2023-05-13T06:46:00.908Z,63.70
2023-05-13T06:47:00.905Z,64.01
2023-05-13T06:48:00.906Z,64.64
2023-05-13T06:49:00.863Z,65.15
2023-05-13T06:50:00.887Z,65.18
2023-05-13T06:51:05.855Z,65.18
2023-05-13T06:52:00.830Z,64.44
2023-05-13T06:53:00.857Z,64.75
2023-05-13T06:54:00.822Z,65.66
2023-05-13T06:55:00.803Z,65.05
2023-05-13T06:56:00.774Z,65.99
2023-05-13T06:57:00.776Z,66.16
2023-05-13T06:58:00.794Z,65.62
2023-05-13T06:59:00.758Z,65.59
2023-05-13T07:00:00.745Z,65.39
2023-05-13T07:01:00.756Z,64.55
2023-05-13T07:02:05.730Z,64.65
2023-05-13T07:03:00.749Z,64.86
2023-05-13T07:04:00.799Z,63.51
2023-05-13T07:05:00.672Z,63.54
2023-05-13T07:06:00.669Z,62.93
2023-05-13T07:07:00.669Z,64.18
2023-05-13T07:08:00.656Z,64.31
2023-05-13T07:09:00.659Z,63.98
2023-05-13T07:10:00.649Z,64.28
2023-05-13T07:11:00.607Z,63.44
2023-05-13T07:12:00.613Z,63.54
2023-05-13T07:13:05.616Z,63.61
2023-05-13T07:14:00.580Z,62.47
2023-05-13T07:15:00.560Z,62.67
2023-05-13T07:16:00.568Z,61.94
2023-05-13T07:17:00.599Z,61.83
2023-05-13T07:18:00.592Z,62.64
2023-05-13T07:19:00.600Z,63.18
2023-05-13T07:20:00.512Z,63.08
2023-05-13T07:21:00.501Z,63.38
2023-05-13T07:22:00.524Z,63.28
2023-05-13T07:23:00.496Z,62.34
2023-05-13T07:24:05.536Z,61.83
2023-05-13T07:25:00.458Z,61.94
2023-05-13T07:26:00.436Z,62.27
2023-05-13T07:27:00.436Z,62.87
2023-05-13T07:28:00.435Z,63.41
2023-05-13T07:29:00.403Z,63.41
2023-05-13T07:30:00.392Z,63.38
2023-05-13T07:31:00.426Z,62.98
2023-05-13T07:32:00.378Z,62.85
2023-05-13T07:33:00.378Z,62.74
2023-05-13T07:34:00.362Z,63.08
2023-05-13T07:35:05.363Z,63.18
2023-05-13T07:36:00.364Z,64.22
2023-05-13T07:37:00.347Z,64.25
2023-05-13T07:38:00.314Z,64.69
2023-05-13T07:39:00.305Z,64.18
2023-05-13T07:40:00.310Z,64.28
2023-05-13T07:41:00.284Z,64.45
2023-05-13T07:42:00.258Z,64.65
2023-05-13T07:43:00.249Z,63.51
2023-05-13T07:44:00.234Z,63.01
2023-05-13T07:45:00.259Z,63.18
2023-05-13T07:46:05.291Z,63.08
2023-05-13T07:47:00.271Z,63.28
2023-05-13T07:48:00.284Z,62.47
2023-05-13T07:49:00.191Z,62.14
2023-05-13T07:50:00.182Z,61.94
2023-05-13T07:51:00.173Z,61.60
2023-05-13T07:52:00.169Z,61.91
2023-05-13T07:53:00.154Z,61.43
2023-05-13T07:54:00.130Z,61.43
2023-05-13T07:55:00.192Z,61.73
2023-05-13T07:56:00.169Z,61.53
2023-05-13T07:57:05.135Z,61.94
2023-05-13T07:58:00.126Z,62.14
2023-05-13T07:59:00.075Z,62.14
2023-05-13T08:00:00.074Z,62.34
2023-05-13T08:01:00.055Z,62.41
2023-05-13T08:02:00.107Z,62.14
2023-05-13T08:03:00.187Z,62.64
2023-05-13T08:04:00.374Z,62.44
2023-05-13T08:05:00.078Z,62.67
2023-05-13T08:06:00.008Z,63.28
2023-05-13T08:06:59.996Z,63.08
2023-05-13T08:08:04.991Z,63.35
2023-05-13T08:08:59.962Z,63.15
2023-05-13T08:09:59.980Z,62.62
2023-05-13T08:10:59.942Z,61.37
2023-05-13T08:11:59.991Z,62.18
2023-05-13T08:12:59.922Z,61.85
2023-05-13T08:13:59.936Z,60.74
2023-05-13T08:14:59.904Z,60.51
2023-05-13T08:15:59.939Z,60.10
2023-05-13T08:16:59.882Z,60.00
2023-05-13T08:17:59.917Z,60.08
2023-05-13T08:19:04.976Z,59.37
2023-05-13T08:20:00.197Z,59.24
2023-05-13T08:20:59.833Z,58.74
2023-05-13T08:21:59.855Z,58.74
2023-05-13T08:22:59.804Z,59.01
2023-05-13T08:23:59.817Z,58.21
2023-05-13T08:24:59.783Z,57.43
2023-05-13T08:25:59.774Z,58.14
2023-05-13T08:26:59.760Z,58.03
2023-05-13T08:27:59.790Z,58.74
2023-05-13T08:28:59.747Z,58.94
2023-05-13T08:30:04.748Z,58.56
2023-05-13T08:30:59.718Z,60.28
2023-05-13T08:31:59.765Z,59.88
2023-05-13T08:32:59.764Z,60.10
2023-05-13T08:33:59.709Z,60.41
2023-05-13T08:34:59.673Z,60.41
2023-05-13T08:35:59.660Z,60.08
2023-05-13T08:36:59.658Z,60.38
2023-05-13T08:37:59.646Z,59.47
2023-05-13T08:38:59.629Z,59.95
2023-05-13T08:39:59.638Z,58.44
2023-05-13T08:41:04.623Z,58.34
2023-05-13T08:41:59.599Z,57.43
2023-05-13T08:42:59.622Z,56.92
2023-05-13T08:43:59.735Z,57.43
2023-05-13T08:44:59.566Z,57.76
2023-05-13T08:45:59.590Z,57.76
2023-05-13T08:46:59.545Z,57.43
2023-05-13T08:47:59.550Z,57.03
2023-05-13T08:48:59.512Z,56.42
2023-05-13T08:49:59.505Z,57.03
2023-05-13T08:50:59.492Z,56.42
2023-05-13T08:52:04.549Z,56.60
2023-05-13T08:52:59.477Z,55.26
2023-05-13T08:53:59.460Z,56.37
2023-05-13T08:54:59.449Z,55.26
2023-05-13T08:55:59.457Z,55.43
2023-05-13T08:56:59.439Z,54.53
2023-05-13T08:57:59.446Z,54.40
2023-05-13T08:58:59.409Z,54.48
2023-05-13T08:59:59.446Z,53.95
2023-05-13T09:00:59.395Z,53.95
2023-05-13T09:01:59.370Z,55.31
2023-05-13T09:03:04.448Z,54.93
2023-05-13T09:03:59.373Z,54.93
2023-05-13T09:04:59.370Z,55.26
2023-05-13T09:05:59.344Z,55.16
2023-05-13T09:06:59.312Z,55.56
2023-05-13T09:07:59.305Z,55.33
2023-05-13T09:08:59.290Z,55.41
2023-05-13T09:09:59.312Z,53.07
2023-05-13T09:10:59.290Z,53.34
2023-05-13T09:11:59.258Z,53.34
2023-05-13T09:12:59.267Z,53.85
2023-05-13T09:14:04.265Z,53.05
2023-05-13T09:14:59.235Z,54.02
2023-05-13T09:15:59.296Z,53.42
2023-05-13T09:16:59.202Z,53.12
2023-05-13T09:17:59.330Z,53.34
2023-05-13T09:18:59.402Z,53.14
2023-05-13T09:19:59.265Z,52.84
2023-05-13T09:20:59.156Z,52.55
2023-05-13T09:21:59.173Z,52.55
2023-05-13T09:22:59.134Z,52.64
2023-05-13T09:23:59.128Z,52.82
2023-05-13T09:25:04.145Z,52.34
2023-05-13T09:25:59.102Z,53.52
2023-05-13T09:26:59.087Z,52.29
2023-05-13T09:27:59.296Z,53.09
2023-05-13T09:28:59.076Z,52.39
2023-05-13T09:29:59.082Z,52.49
2023-05-13T09:30:59.052Z,51.19
2023-05-13T09:31:59.055Z,51.87
2023-05-13T09:32:59.101Z,51.04
2023-05-13T09:33:59.041Z,51.06
2023-05-13T09:34:59.014Z,50.86
2023-05-13T09:36:04.026Z,51.97
2023-05-13T09:36:59.000Z,51.67
2023-05-13T09:37:58.972Z,51.64
2023-05-13T09:38:58.964Z,51.04
2023-05-13T09:39:58.966Z,51.94
2023-05-13T09:40:58.932Z,50.94
2023-05-13T09:41:58.924Z,50.96
2023-05-13T09:42:58.920Z,50.74
2023-05-13T09:43:58.918Z,50.26
2023-05-13T09:44:58.890Z,50.44
2023-05-13T09:45:58.904Z,51.67
2023-05-13T09:47:03.962Z,51.59
2023-05-13T09:47:58.868Z,52.32
2023-05-13T09:48:58.898Z,52.72
2023-05-13T09:49:58.843Z,52.32
2023-05-13T09:50:58.823Z,53.52
2023-05-13T09:51:58.844Z,53.39
2023-05-13T09:52:58.832Z,52.87
2023-05-13T09:53:58.792Z,52.17
2023-05-13T09:54:58.778Z,52.37
2023-05-13T09:55:58.775Z,51.46
2023-05-13T09:56:58.761Z,50.46
2023-05-13T09:58:03.805Z,51.06
2023-05-13T09:58:58.764Z,51.46
2023-05-13T09:59:58.737Z,52.17
2023-05-13T10:00:58.819Z,50.13
2023-05-13T10:01:58.714Z,50.34
2023-05-13T10:02:58.788Z,50.01
2023-05-13T10:03:58.719Z,50.24
2023-05-13T10:04:58.666Z,48.83
2023-05-13T10:06:00.515Z,50.04
2023-05-13T10:06:58.666Z,50.04
2023-05-13T10:07:58.635Z,48.71
2023-05-13T10:09:03.660Z,49.61
2023-05-13T10:09:58.619Z,48.58
2023-05-13T10:10:58.604Z,47.76
2023-05-13T10:11:58.603Z,48.79
2023-05-13T10:12:58.598Z,47.49
2023-05-13T10:13:58.583Z,48.08
2023-05-13T10:14:58.566Z,48.38
2023-05-13T10:15:58.559Z,48.89
2023-05-13T10:16:58.711Z,48.58
2023-05-13T10:17:58.560Z,48.38
2023-05-13T10:18:58.696Z,48.49
2023-05-13T10:20:03.531Z,48.57
2023-05-13T10:20:58.501Z,47.46
2023-05-13T10:21:58.516Z,47.66
2023-05-13T10:22:58.471Z,48.36
2023-05-13T10:23:58.467Z,48.66
2023-05-13T10:24:58.445Z,48.46
2023-05-13T10:25:58.458Z,48.76
2023-05-13T10:26:58.425Z,48.16
2023-05-13T10:27:58.433Z,48.26
2023-05-13T10:28:58.401Z,47.69
2023-05-13T10:29:58.401Z,46.96
2023-05-13T10:31:03.418Z,45.26
2023-05-13T10:31:58.406Z,44.46
2023-05-13T10:32:58.440Z,44.76
2023-05-13T10:33:58.368Z,45.66
2023-05-13T10:34:58.366Z,45.56
2023-05-13T10:35:58.362Z,45.46
2023-05-13T10:36:58.316Z,45.28
2023-05-13T10:37:58.299Z,44.88
2023-05-13T10:38:58.299Z,45.96
2023-05-13T10:39:58.324Z,45.26
2023-05-13T10:40:58.263Z,45.16
2023-05-13T10:42:03.287Z,45.43
2023-05-13T10:42:58.240Z,44.84
2023-05-13T10:43:58.234Z,45.54
2023-05-13T10:44:58.239Z,45.74
2023-05-13T10:45:58.305Z,45.96
2023-05-13T10:46:58.198Z,45.76
2023-05-13T10:47:58.400Z,45.68
2023-05-13T10:48:58.191Z,45.48
2023-05-13T10:49:58.180Z,45.48
2023-05-13T10:50:58.176Z,45.66
2023-05-13T10:51:58.160Z,46.14
2023-05-13T10:53:03.151Z,45.96
2023-05-13T10:53:58.121Z,45.96
2023-05-13T10:54:58.121Z,45.96
2023-05-13T10:55:58.102Z,46.16
2023-05-13T10:56:58.090Z,46.16
2023-05-13T10:57:58.085Z,45.86
2023-05-13T10:58:58.073Z,45.86
2023-05-13T10:59:58.067Z,44.74
2023-05-13T11:00:58.042Z,45.24
2023-05-13T11:01:58.069Z,45.64
2023-05-13T11:02:58.102Z,45.43
2023-05-13T11:04:03.213Z,46.16
2023-05-13T11:04:58.005Z,46.08
2023-05-13T11:05:58.015Z,46.16
2023-05-13T11:06:58.007Z,46.18
2023-05-13T11:07:57.991Z,45.94
2023-05-13T11:08:57.962Z,46.34
2023-05-13T11:09:57.947Z,45.92
2023-05-13T11:10:57.960Z,45.42
2023-05-13T11:11:57.942Z,45.81
2023-05-13T11:12:57.917Z,45.31
2023-05-13T11:13:57.913Z,45.54
2023-05-13T11:15:02.915Z,45.43
2023-05-13T11:15:57.900Z,45.96
2023-05-13T11:16:57.911Z,45.18
2023-05-13T11:17:57.976Z,45.78
2023-05-13T11:18:57.938Z,46.68
2023-05-13T11:19:57.837Z,45.56
2023-05-13T11:20:57.844Z,45.42
2023-05-13T11:21:57.812Z,45.27
2023-05-13T11:22:57.912Z,44.07
2023-05-13T11:23:57.824Z,42.95
2023-05-13T11:24:57.783Z,43.65
2023-05-13T11:26:02.792Z,44.05
2023-05-13T11:26:57.767Z,44.17
2023-05-13T11:27:57.761Z,43.87
2023-05-13T11:28:57.766Z,44.49
2023-05-13T11:29:57.733Z,45.92
2023-05-13T11:30:57.769Z,45.46
2023-05-13T11:32:00.028Z,46.46
2023-05-13T11:32:57.754Z,46.18
2023-05-13T11:33:57.685Z,46.28
2023-05-13T11:34:57.710Z,47.28
2023-05-13T11:35:57.667Z,47.31
2023-05-13T11:37:02.671Z,47.73
2023-05-13T11:37:59.858Z,47.23
2023-05-13T11:38:57.652Z,48.13
2023-05-13T11:39:57.623Z,48.23
2023-05-13T11:40:57.621Z,48.23
2023-05-13T11:41:57.613Z,48.55
2023-05-13T11:42:57.599Z,49.16
2023-05-13T11:43:57.576Z,48.86
2023-05-13T11:44:57.560Z,49.46
2023-05-13T11:45:57.602Z,48.68
2023-05-13T11:46:57.585Z,49.98
2023-05-13T11:48:02.597Z,49.30
2023-05-13T11:48:57.564Z,50.11
2023-05-13T11:49:57.505Z,50.81
2023-05-13T11:50:57.519Z,49.63
2023-05-13T11:51:57.487Z,50.63
2023-05-13T11:52:57.514Z,50.43
2023-05-13T11:53:57.459Z,50.73
2023-05-13T11:54:57.488Z,50.23
2023-05-13T11:55:57.447Z,50.43
2023-05-13T11:56:57.429Z,50.03
2023-05-13T11:57:57.433Z,50.33
2023-05-13T11:59:02.466Z,50.53
2023-05-13T11:59:57.438Z,49.93
2023-05-13T12:00:57.393Z,51.44
2023-05-13T12:01:57.414Z,49.91
2023-05-13T12:02:57.503Z,50.11
2023-05-13T12:03:57.351Z,49.10
2023-05-13T12:04:57.372Z,49.30
2023-05-13T12:05:57.368Z,49.10
2023-05-13T12:06:57.343Z,50.21
2023-05-13T12:07:57.337Z,50.11
2023-05-13T12:08:57.299Z,50.41
2023-05-13T12:10:02.326Z,50.71
2023-05-13T12:10:57.298Z,49.91
2023-05-13T12:11:57.294Z,49.93
2023-05-13T12:12:57.274Z,49.30
2023-05-13T12:13:57.257Z,49.40
2023-05-13T12:14:57.232Z,50.03
2023-05-13T12:15:57.275Z,50.63
2023-05-13T12:16:57.227Z,50.23
2023-05-13T12:17:57.255Z,50.63
2023-05-13T12:18:57.201Z,50.93
2023-05-13T12:19:57.181Z,50.84
2023-05-13T12:21:02.200Z,51.14
2023-05-13T12:21:57.154Z,51.14
2023-05-13T12:22:57.303Z,51.04
2023-05-13T12:23:57.140Z,51.54
2023-05-13T12:24:57.131Z,49.05
2023-05-13T12:25:57.148Z,48.69
2023-05-13T12:26:57.105Z,49.02
2023-05-13T12:27:57.089Z,49.07
2023-05-13T12:28:57.076Z,47.95
2023-05-13T12:29:57.078Z,48.20
2023-05-13T12:30:57.186Z,48.48
2023-05-13T12:32:02.064Z,48.18
2023-05-13T12:32:57.089Z,47.78
2023-05-13T12:33:57.022Z,48.50
2023-05-13T12:34:57.021Z,48.32
2023-05-13T12:35:57.029Z,48.85
2023-05-13T12:36:57.025Z,49.67
2023-05-13T12:37:56.971Z,51.29
2023-05-13T12:38:59.846Z,51.09
2023-05-13T12:39:56.967Z,51.34
2023-05-13T12:40:56.941Z,52.24
2023-05-13T12:41:56.957Z,51.17
2023-05-13T12:43:02.003Z,52.37
2023-05-13T12:43:56.930Z,52.59
2023-05-13T12:44:56.932Z,53.87
2023-05-13T12:45:56.904Z,53.17
2023-05-13T12:46:56.879Z,52.69
2023-05-13T12:47:56.973Z,52.42
2023-05-13T12:48:56.859Z,52.42
2023-05-13T12:49:56.916Z,51.24
2023-05-13T12:50:56.830Z,50.13
2023-05-13T12:51:56.890Z,51.84
2023-05-13T12:52:56.805Z,51.54
2023-05-13T12:53:56.834Z,50.92
2023-05-13T12:54:56.791Z,50.42
2023-05-13T12:56:01.801Z,50.19
2023-05-13T12:56:56.766Z,50.59
2023-05-13T12:57:56.781Z,51.72
2023-05-13T12:58:56.779Z,51.69
2023-05-13T12:59:56.754Z,51.49
2023-05-13T13:00:56.786Z,51.42
2023-05-13T13:01:56.708Z,51.62
2023-05-13T13:02:56.867Z,51.49
2023-05-13T13:03:56.808Z,50.99
2023-05-13T13:04:56.676Z,51.49
2023-05-13T13:05:56.672Z,51.69
2023-05-13T13:07:01.681Z,52.42
2023-05-13T13:07:56.642Z,50.13
2023-05-13T13:08:56.637Z,51.17
2023-05-13T13:09:56.620Z,51.56
2023-05-13T13:10:56.606Z,51.26
2023-05-13T13:11:56.625Z,50.86
2023-05-13T13:12:56.584Z,50.71
2023-05-13T13:13:56.612Z,51.61
2023-05-13T13:14:56.565Z,50.71
2023-05-13T13:15:56.575Z,50.59
2023-05-13T13:16:56.746Z,48.75
2023-05-13T13:18:01.692Z,49.26
2023-05-13T13:18:58.288Z,49.36
2023-05-13T13:19:56.524Z,49.26
2023-05-13T13:20:56.506Z,48.63
2023-05-13T13:21:56.487Z,48.73
2023-05-13T13:22:56.483Z,49.36
2023-05-13T13:23:56.490Z,49.16
2023-05-13T13:24:56.462Z,48.63
2023-05-13T13:25:56.445Z,48.05
2023-05-13T13:26:56.680Z,48.53
2023-05-13T13:27:56.448Z,48.73
2023-05-13T13:29:01.458Z,48.93
2023-05-13T13:29:56.417Z,49.43
2023-05-13T13:30:56.394Z,49.74
2023-05-13T13:31:56.405Z,49.13
2023-05-13T13:32:56.389Z,48.53
2023-05-13T13:33:56.354Z,48.53
2023-05-13T13:34:56.345Z,48.53
2023-05-13T13:35:56.355Z,49.04
2023-05-13T13:36:56.330Z,48.63
2023-05-13T13:37:56.309Z,48.75
2023-05-13T13:38:56.303Z,48.83
2023-05-13T13:40:01.335Z,47.73
2023-05-13T13:40:56.276Z,48.21
2023-05-13T13:41:56.302Z,47.43
2023-05-13T13:42:56.255Z,47.53
2023-05-13T13:43:56.246Z,46.61
2023-05-13T13:44:56.253Z,48.13
2023-05-13T13:45:56.315Z,47.11
2023-05-13T13:46:56.235Z,47.31
2023-05-13T13:47:56.268Z,47.61
2023-05-13T13:48:56.210Z,47.13
2023-05-13T13:49:56.175Z,48.03
2023-05-13T13:51:01.200Z,47.61
2023-05-13T13:51:56.175Z,47.93
2023-05-13T13:52:56.148Z,48.83
2023-05-13T13:53:56.175Z,48.43
2023-05-13T13:54:56.130Z,48.83
2023-05-13T13:55:56.114Z,48.43
2023-05-13T13:56:56.113Z,48.93
2023-05-13T13:57:56.095Z,49.04
2023-05-13T13:58:56.081Z,49.04
2023-05-13T13:59:56.083Z,48.73
2023-05-13T14:00:56.116Z,48.43
2023-05-13T14:02:01.140Z,47.20
2023-05-13T14:02:56.102Z,48.23
2023-05-13T14:03:56.430Z,48.33
2023-05-13T14:04:56.063Z,48.93
2023-05-13T14:05:56.265Z,49.13
2023-05-13T14:06:55.990Z,49.04
2023-05-13T14:07:56.192Z,45.72
2023-05-13T14:08:55.978Z,46.42
2023-05-13T14:09:56.048Z,46.83
2023-05-13T14:10:55.948Z,47.53
2023-05-13T14:11:55.938Z,47.83
2023-05-13T14:13:00.962Z,46.91
2023-05-13T14:13:55.914Z,46.91
2023-05-13T14:14:56.005Z,47.00
2023-05-13T14:15:55.923Z,46.91
2023-05-13T14:16:55.909Z,48.21
2023-05-13T14:17:55.974Z,47.61
2023-05-13T14:18:55.954Z,47.61
2023-05-13T14:19:55.994Z,48.11
2023-05-13T14:20:55.861Z,48.53
2023-05-13T14:21:55.827Z,48.71
2023-05-13T14:22:55.826Z,48.53
2023-05-13T14:24:00.860Z,49.13
2023-05-13T14:24:55.994Z,49.81
2023-05-13T14:25:55.835Z,49.61
2023-05-13T14:26:55.778Z,50.11
2023-05-13T14:27:55.785Z,49.31
2023-05-13T14:28:55.780Z,49.21
2023-05-13T14:29:55.741Z,48.53
2023-05-13T14:30:55.734Z,47.23
2023-05-13T14:31:55.783Z,48.23
2023-05-13T14:32:55.750Z,48.55
2023-05-13T14:33:55.762Z,48.66
2023-05-13T14:35:00.716Z,49.33
2023-05-13T14:35:55.685Z,50.04
2023-05-13T14:36:55.678Z,50.24
2023-05-13T14:37:55.667Z,49.96
2023-05-13T14:38:55.662Z,50.26
2023-05-13T14:39:55.653Z,50.56
2023-05-13T14:40:55.629Z,50.96
2023-05-13T14:41:55.614Z,51.06
2023-05-13T14:42:55.610Z,50.76
2023-05-13T14:43:55.589Z,51.17
2023-05-13T14:44:55.578Z,50.76
2023-05-13T14:46:00.635Z,50.76
2023-05-13T14:46:55.591Z,50.66
2023-05-13T14:47:55.578Z,51.17
2023-05-13T14:48:55.555Z,51.59
2023-05-13T14:49:55.527Z,51.09
2023-05-13T14:50:55.519Z,51.67
2023-05-13T14:51:55.531Z,52.37
2023-05-13T14:52:55.499Z,52.69
2023-05-13T14:53:55.472Z,52.19
2023-05-13T14:54:55.468Z,52.39
2023-05-13T14:55:55.452Z,53.09
2023-05-13T14:57:00.496Z,53.50
2023-05-13T14:57:55.427Z,53.39
2023-05-13T14:58:55.424Z,53.00
2023-05-13T14:59:55.409Z,53.20
2023-05-13T15:00:55.426Z,54.40
2023-05-13T15:01:55.476Z,54.10
2023-05-13T15:02:55.548Z,53.22
2023-05-13T15:03:55.361Z,53.62
2023-05-13T15:04:55.376Z,53.92
2023-05-13T15:05:55.357Z,54.13
2023-05-13T15:06:55.337Z,55.43
2023-05-13T15:08:00.342Z,54.93
2023-05-13T15:08:55.330Z,54.93
2023-05-13T15:09:55.297Z,55.35
2023-05-13T15:10:55.293Z,56.26
2023-05-13T15:11:55.268Z,55.58
2023-05-13T15:12:55.265Z,56.29
2023-05-13T15:13:55.254Z,56.29
2023-05-13T15:14:55.285Z,56.29
2023-05-13T15:15:55.240Z,57.09
2023-05-13T15:16:55.274Z,57.09
2023-05-13T15:17:55.270Z,57.39
2023-05-13T15:19:00.280Z,56.79
2023-05-13T15:19:55.200Z,57.19
2023-05-13T15:20:55.218Z,56.69
2023-05-13T15:21:55.172Z,57.19
2023-05-13T15:22:55.153Z,57.09
2023-05-13T15:23:55.152Z,57.19
2023-05-13T15:24:55.142Z,55.41
2023-05-13T15:25:55.116Z,55.11
2023-05-13T15:26:55.125Z,56.74
2023-05-13T15:27:55.097Z,57.12
2023-05-13T15:28:55.090Z,56.71
2023-05-13T15:30:00.128Z,55.28
2023-05-13T15:30:55.125Z,55.48
2023-05-13T15:31:55.049Z,55.79
2023-05-13T15:32:55.129Z,55.38
2023-05-13T15:33:55.044Z,55.66
2023-05-13T15:34:55.028Z,55.66
2023-05-13T15:35:55.010Z,55.86
2023-05-13T15:36:55.020Z,55.86
2023-05-13T15:37:55.000Z,56.16
2023-05-13T15:38:55.050Z,56.34
2023-05-13T15:39:54.976Z,55.23
2023-05-13T15:41:00.280Z,55.63
2023-05-13T15:41:54.940Z,55.73
2023-05-13T15:42:54.930Z,55.13
2023-05-13T15:43:54.932Z,55.23
2023-05-13T15:44:54.921Z,54.72
2023-05-13T15:45:55.001Z,55.53
2023-05-13T15:46:55.008Z,55.30
2023-05-13T15:47:54.913Z,54.90
2023-05-13T15:48:54.875Z,54.60
2023-05-13T15:49:54.868Z,55.00
2023-05-13T15:50:54.864Z,54.47
2023-05-13T15:51:59.880Z,54.27
2023-05-13T15:52:54.828Z,54.38
2023-05-13T15:53:54.834Z,53.67
2023-05-13T15:54:54.799Z,54.88
2023-05-13T15:55:54.786Z,54.77
2023-05-13T15:56:54.802Z,54.68
2023-05-13T15:57:54.771Z,55.18
2023-05-13T15:58:54.762Z,54.97
2023-05-13T15:59:54.754Z,54.77
2023-05-13T16:00:54.747Z,55.28
2023-05-13T16:01:54.734Z,55.68
2023-05-13T16:02:59.808Z,55.65
2023-05-13T16:03:54.735Z,54.85
2023-05-13T16:04:54.684Z,54.88
2023-05-13T16:05:54.675Z,54.07
2023-05-13T16:06:54.672Z,54.15
2023-05-13T16:07:54.678Z,55.28
2023-05-13T16:08:56.404Z,54.97
2023-05-13T16:09:54.639Z,55.08
2023-05-13T16:10:54.636Z,53.59
2023-05-13T16:11:54.609Z,54.50
2023-05-13T16:12:54.619Z,54.60
2023-05-13T16:13:59.602Z,54.63
2023-05-13T16:14:54.678Z,54.93
2023-05-13T16:15:54.630Z,55.16
2023-05-13T16:16:54.572Z,55.33
2023-05-13T16:17:54.677Z,56.36
2023-05-13T16:18:54.599Z,56.16
2023-05-13T16:19:54.584Z,57.29
2023-05-13T16:20:54.525Z,58.45
2023-05-13T16:21:54.561Z,59.48
2023-05-13T16:22:54.488Z,60.72
2023-05-13T16:23:54.498Z,61.73
2023-05-13T16:24:59.490Z,62.77
2023-05-13T16:25:54.505Z,63.10
2023-05-13T16:26:54.639Z,64.01
2023-05-13T16:27:54.492Z,64.11
2023-05-13T16:28:54.463Z,65.32
2023-05-13T16:29:54.511Z,64.75
2023-05-13T16:30:55.415Z,65.05
2023-05-13T16:31:54.516Z,66.08
2023-05-13T16:32:54.560Z,67.19
2023-05-13T16:33:54.363Z,66.79
2023-05-13T16:34:54.356Z,67.02
2023-05-13T16:35:59.396Z,67.93
2023-05-13T16:36:54.421Z,69.95
2023-05-13T16:37:54.372Z,71.60
2023-05-13T16:38:54.305Z,71.60
2023-05-13T16:39:54.326Z,69.98
2023-05-13T16:40:54.300Z,70.62
2023-05-13T16:41:54.270Z,70.53
2023-05-13T16:42:56.254Z,71.53
2023-05-13T16:43:54.401Z,71.97
2023-05-13T16:44:54.240Z,72.08
2023-05-13T16:45:54.239Z,72.31
2023-05-13T16:46:59.237Z,74.03
2023-05-13T16:47:54.303Z,73.22
2023-05-13T16:48:54.221Z,73.52
2023-05-13T16:49:54.232Z,73.43
2023-05-13T16:50:54.187Z,72.92
2023-05-13T16:51:54.166Z,72.21
2023-05-13T16:52:54.157Z,73.36
2023-05-13T16:53:54.152Z,73.12
2023-05-13T16:54:54.901Z,74.74
2023-05-13T16:55:54.146Z,75.14
2023-05-13T16:56:54.133Z,75.75
2023-05-13T16:57:59.114Z,75.14
2023-05-13T16:58:54.094Z,74.33
2023-05-13T16:59:54.248Z,75.14
2023-05-13T17:00:54.185Z,74.03
2023-05-13T17:01:54.085Z,73.93
2023-05-13T17:02:54.137Z,74.84
2023-05-13T17:03:54.036Z,74.03
2023-05-13T17:04:54.042Z,75.45
2023-05-13T17:05:54.024Z,74.94
2023-05-13T17:06:54.121Z,73.93
2023-05-13T17:07:54.014Z,74.40
2023-05-13T17:08:59.012Z,75.34
2023-05-13T17:09:53.971Z,75.81
2023-05-13T17:10:53.948Z,75.34
2023-05-13T17:11:53.973Z,75.21
2023-05-13T17:12:53.948Z,73.49
2023-05-13T17:13:54.158Z,72.88
2023-05-13T17:14:53.918Z,71.87
2023-05-13T17:15:53.911Z,72.38
2023-05-13T17:16:53.902Z,72.28
2023-05-13T17:17:53.939Z,73.19
2023-05-13T17:18:54.041Z,73.59
2023-05-13T17:19:58.939Z,72.48
2023-05-13T17:20:53.847Z,72.08
2023-05-13T17:21:53.843Z,71.67
2023-05-13T17:22:53.819Z,71.97
2023-05-13T17:23:53.816Z,71.47
2023-05-13T17:24:53.793Z,71.73
2023-05-13T17:25:53.799Z,71.47
2023-05-13T17:26:53.781Z,72.17
2023-05-13T17:27:53.797Z,71.97
2023-05-13T17:28:53.795Z,71.57
2023-05-13T17:29:53.738Z,72.14
2023-05-13T17:30:58.815Z,71.77
2023-05-13T17:31:53.749Z,71.97
2023-05-13T17:32:53.793Z,71.97
2023-05-13T17:33:53.743Z,71.77
2023-05-13T17:34:53.684Z,72.08
2023-05-13T17:35:53.671Z,72.78
2023-05-13T17:36:53.668Z,72.14
2023-05-13T17:37:53.679Z,71.84
2023-05-13T17:38:53.637Z,72.68
2023-05-13T17:39:53.627Z,72.55
2023-05-13T17:40:53.635Z,72.48
2023-05-13T17:41:58.642Z,71.67
2023-05-13T17:42:53.614Z,72.08
2023-05-13T17:43:53.630Z,72.58
2023-05-13T17:44:53.619Z,73.28
2023-05-13T17:45:53.578Z,72.99
2023-05-13T17:46:53.568Z,73.49
2023-05-13T17:47:53.668Z,73.49
2023-05-13T17:48:53.642Z,73.55
2023-05-13T17:49:53.558Z,73.99
2023-05-13T17:50:53.512Z,74.57
2023-05-13T17:51:53.504Z,73.59
2023-05-13T17:52:58.515Z,73.86